createdAt,value
2022-08-26T00:02:08.977Z,52.35
2022-08-26T00:04:37.919Z,52.93
2022-08-26T00:07:07.876Z,53.47
2022-08-26T00:09:40.514Z,53.90
2022-08-26T00:12:12.994Z,54.56
2022-08-26T00:14:43.789Z,54.24
2022-08-26T00:17:12.887Z,53.71
2022-08-26T00:19:43.757Z,54.46
2022-08-26T00:22:14.305Z,54.92
2022-08-26T00:24:50.625Z,55.29
2022-08-26T00:27:21.674Z,54.92
2022-08-26T00:29:50.860Z,57.03
2022-08-26T00:32:19.853Z,57.21
2022-08-26T00:34:48.530Z,57.72
2022-08-26T00:37:19.642Z,58.58
2022-08-26T00:39:50.630Z,58.70
2022-08-26T00:42:25.057Z,59.20
2022-08-26T00:44:54.454Z,59.32
2022-08-26T00:47:26.348Z,59.15
2022-08-26T00:50:01.557Z,59.17
2022-08-26T00:52:37.523Z,59.62
2022-08-26T00:55:10.444Z,60.60
2022-08-26T00:57:41.204Z,61.16
2022-08-26T01:00:15.194Z,61.64
2022-08-26T01:02:46.903Z,61.45
2022-08-26T01:05:17.551Z,61.30
2022-08-26T01:07:47.394Z,61.76
2022-08-26T01:10:23.350Z,60.93
2022-08-26T01:12:59.032Z,60.35
2022-08-26T01:15:32.806Z,60.59
2022-08-26T01:18:05.784Z,59.92
2022-08-26T01:20:43.790Z,59.92
2022-08-26T01:23:16.703Z,59.09
2022-08-26T01:25:47.919Z,59.18
2022-08-26T01:28:24.887Z,59.35
2022-08-26T01:30:58.112Z,60.06
2022-08-26T01:33:42.176Z,60.20
2022-08-26T01:36:12.125Z,60.01
2022-08-26T01:38:42.598Z,59.71
2022-08-26T01:41:16.240Z,59.57
2022-08-26T01:43:51.617Z,59.12
2022-08-26T01:46:21.297Z,59.46
2022-08-26T01:48:54.352Z,59.95
2022-08-26T01:51:24.538Z,59.84
2022-08-26T01:53:54.064Z,59.89
2022-08-26T01:56:24.129Z,59.82
2022-08-26T01:58:54.622Z,60.89
2022-08-26T02:01:29.209Z,60.76
2022-08-26T02:04:06.843Z,61.22
2022-08-26T02:06:36.931Z,62.37
2022-08-26T02:09:08.103Z,62.14
2022-08-26T02:11:36.750Z,62.84
2022-08-26T02:14:09.784Z,62.27
2022-08-26T02:16:42.263Z,61.91
2022-08-26T02:19:17.269Z,61.88
2022-08-26T02:21:51.255Z,61.92
2022-08-26T02:24:23.352Z,62.18
2022-08-26T02:26:52.420Z,62.28
2022-08-26T02:29:25.573Z,62.46
2022-08-26T02:31:55.765Z,62.48
2022-08-26T02:34:28.193Z,62.74
2022-08-26T02:37:00.643Z,62.26
2022-08-26T02:39:31.757Z,62.16
2022-08-26T02:42:00.652Z,61.81
2022-08-26T02:44:28.818Z,61.75
2022-08-26T02:46:57.032Z,61.27
2022-08-26T02:49:25.582Z,61.58
2022-08-26T02:51:54.126Z,62.22
2022-08-26T02:54:22.960Z,61.39
2022-08-26T02:56:52.854Z,61.55
2022-08-26T02:59:24.471Z,61.24
2022-08-26T03:01:56.057Z,61.12
2022-08-26T03:04:25.743Z,60.71
2022-08-26T03:06:55.520Z,61.41
2022-08-26T03:09:25.814Z,61.79
2022-08-26T03:11:58.778Z,61.66
2022-08-26T03:14:30.825Z,62.51
2022-08-26T03:17:02.794Z,61.41
2022-08-26T03:20:13.657Z,61.21
2022-08-26T03:23:19.628Z,60.81
2022-08-26T03:26:20.817Z,60.44
2022-08-26T03:29:40.724Z,60.56
2022-08-26T03:32:47.815Z,61.24
2022-08-26T03:35:59.815Z,61.36
2022-08-26T03:38:46.960Z,61.27
2022-08-26T03:41:56.900Z,60.78
2022-08-26T03:44:46.790Z,61.40
2022-08-26T03:47:57.875Z,61.37
2022-08-26T03:50:50.929Z,61.16
2022-08-26T03:53:37.768Z,60.57
2022-08-26T03:59:54.767Z,60.75
2022-08-26T04:02:41.866Z,61.47
2022-08-26T04:05:49.786Z,60.91
2022-08-26T04:08:36.797Z,60.74
2022-08-26T04:14:53.869Z,61.64
2022-08-26T04:17:29.879Z,61.18
2022-08-26T04:19:58.804Z,61.20
2022-08-26T04:22:27.758Z,61.63
2022-08-26T04:24:59.691Z,62.36
2022-08-26T04:27:29.542Z,62.12
2022-08-26T04:29:59.757Z,61.95
2022-08-26T04:32:30.544Z,61.83
2022-08-26T04:35:00.734Z,61.33
2022-08-26T04:37:32.819Z,61.24
2022-08-26T04:40:01.670Z,60.78
2022-08-26T04:42:32.130Z,62.05
2022-08-26T04:45:05.778Z,62.12
2022-08-26T04:47:38.363Z,61.75
2022-08-26T04:50:08.903Z,62.46
2022-08-26T04:52:39.491Z,61.92
2022-08-26T04:55:08.805Z,62.29
2022-08-26T04:57:37.354Z,62.60
2022-08-26T05:00:10.233Z,62.51
2022-08-26T05:02:39.557Z,62.30
2022-08-26T05:05:09.503Z,62.76
2022-08-26T05:07:38.152Z,62.64
2022-08-26T05:10:08.724Z,62.05
2022-08-26T05:12:37.365Z,62.31
2022-08-26T05:15:10.604Z,61.66
2022-08-26T05:17:39.271Z,61.67
2022-08-26T05:20:09.000Z,62.52
2022-08-26T05:22:37.147Z,61.79
2022-08-26T05:25:05.713Z,62.33
2022-08-26T05:27:33.863Z,62.51
2022-08-26T05:30:01.920Z,62.22
2022-08-26T05:32:32.062Z,62.54
2022-08-26T05:35:00.253Z,62.64
2022-08-26T05:37:28.779Z,62.84
2022-08-26T05:39:57.598Z,63.17
2022-08-26T05:42:26.145Z,62.90
2022-08-26T05:44:56.213Z,62.66
2022-08-26T05:47:24.792Z,62.92
2022-08-26T05:49:54.576Z,62.17
2022-08-26T05:52:24.690Z,62.26
2022-08-26T05:54:54.466Z,62.56
2022-08-26T05:57:23.197Z,61.96
2022-08-26T05:59:51.732Z,62.14
2022-08-26T06:02:20.999Z,62.05
2022-08-26T06:04:49.150Z,62.77
2022-08-26T06:07:38.846Z,63.82
2022-08-26T06:10:31.192Z,63.35
2022-08-26T06:12:57.483Z,62.49
2022-08-26T06:15:26.016Z,62.56
2022-08-26T06:17:54.210Z,62.54
2022-08-26T06:20:22.318Z,62.63
2022-08-26T06:23:09.322Z,62.22
2022-08-26T06:25:39.547Z,61.88
2022-08-26T06:28:08.946Z,61.96
2022-08-26T06:30:41.576Z,62.16
2022-08-26T06:33:10.250Z,61.94
2022-08-26T06:35:39.782Z,61.75
2022-08-26T06:38:09.784Z,62.30
2022-08-26T06:40:42.257Z,62.80
2022-08-26T06:43:11.317Z,63.24
2022-08-26T06:45:39.801Z,63.17
2022-08-26T06:48:09.549Z,63.38
2022-08-26T06:50:37.846Z,63.01
2022-08-26T06:53:06.043Z,63.26
2022-08-26T06:55:41.464Z,63.82
2022-08-26T06:58:10.792Z,64.01
2022-08-26T07:00:39.716Z,63.77
2022-08-26T07:03:10.449Z,63.63
2022-08-26T07:05:39.057Z,63.17
2022-08-26T07:08:07.519Z,63.16
2022-08-26T07:10:38.319Z,63.49
2022-08-26T07:13:07.949Z,62.81
2022-08-26T07:15:40.235Z,63.04
2022-08-26T07:18:09.131Z,63.15
2022-08-26T07:20:42.296Z,62.99
2022-08-26T07:23:12.101Z,63.06
2022-08-26T07:25:43.157Z,63.00
2022-08-26T07:28:12.473Z,62.76
2022-08-26T07:30:42.005Z,62.54
2022-08-26T07:33:11.148Z,62.89
2022-08-26T07:35:39.864Z,62.26
2022-08-26T07:38:09.284Z,62.65
2022-08-26T07:40:39.061Z,62.87
2022-08-26T07:43:09.612Z,62.68
2022-08-26T07:45:38.568Z,63.03
2022-08-26T07:48:07.262Z,63.05
2022-08-26T07:50:50.181Z,63.05
2022-08-26T07:53:19.504Z,61.78
2022-08-26T07:55:49.453Z,62.00
2022-08-26T07:58:22.588Z,62.79
2022-08-26T08:00:55.487Z,62.59
2022-08-26T08:03:27.777Z,63.38
2022-08-26T08:05:58.368Z,63.17
2022-08-26T08:08:29.329Z,62.66
2022-08-26T08:10:59.704Z,63.38
2022-08-26T08:13:31.142Z,63.33
2022-08-26T08:16:00.773Z,62.58
2022-08-26T08:18:30.257Z,62.31
2022-08-26T08:21:20.900Z,61.97
2022-08-26T08:23:52.182Z,61.49
2022-08-26T08:26:22.879Z,61.48
2022-08-26T08:28:56.814Z,62.14
2022-08-26T08:31:56.212Z,61.36
2022-08-26T08:34:22.900Z,61.24
2022-08-26T08:36:53.407Z,61.34
2022-08-26T08:39:23.385Z,62.42
2022-08-26T08:42:17.034Z,62.00
2022-08-26T08:44:52.739Z,62.12
2022-08-26T08:47:36.275Z,63.12
2022-08-26T08:50:15.373Z,63.24
2022-08-26T08:52:52.842Z,63.06
2022-08-26T08:55:23.656Z,63.21
2022-08-26T08:58:03.992Z,62.82
2022-08-26T09:00:44.920Z,63.43
2022-08-26T09:03:33.306Z,63.50
2022-08-26T09:06:04.113Z,63.99
2022-08-26T09:08:38.536Z,64.32
2022-08-26T09:11:10.011Z,64.07
2022-08-26T09:13:46.703Z,63.51
2022-08-26T09:16:26.549Z,63.39
2022-08-26T09:19:09.036Z,62.57
2022-08-26T09:21:38.793Z,62.55
2022-08-26T09:24:11.278Z,62.23
2022-08-26T09:26:47.431Z,62.17
2022-08-26T09:29:28.919Z,62.18
2022-08-26T09:32:21.509Z,61.44
2022-08-26T09:34:58.235Z,61.40
2022-08-26T09:37:39.720Z,60.84
2022-08-26T09:40:19.398Z,60.21
2022-08-26T09:43:09.603Z,60.39
2022-08-26T09:45:50.097Z,60.65
2022-08-26T09:48:31.628Z,60.51
2022-08-26T09:51:02.720Z,60.15
2022-08-26T09:53:57.992Z,60.21
2022-08-26T09:56:32.864Z,60.29
2022-08-26T09:59:05.022Z,60.56
2022-08-26T10:01:41.901Z,60.52
2022-08-26T10:04:17.841Z,59.95
2022-08-26T10:07:00.270Z,59.80
2022-08-26T10:09:32.101Z,59.75
2022-08-26T10:12:04.474Z,60.00
2022-08-26T10:14:49.361Z,59.55
2022-08-26T10:17:32.300Z,59.21
2022-08-26T10:20:23.244Z,59.43
2022-08-26T10:23:00.370Z,59.20
2022-08-26T10:25:35.396Z,59.14
2022-08-26T10:28:11.993Z,58.83
2022-08-26T10:30:55.833Z,58.46
2022-08-26T10:33:27.726Z,58.57
2022-08-26T10:36:06.426Z,59.22
2022-08-26T10:38:38.518Z,59.03
2022-08-26T10:41:13.595Z,58.36
2022-08-26T10:43:54.755Z,58.36
2022-08-26T10:46:35.518Z,58.86
2022-08-26T10:49:14.294Z,58.44
2022-08-26T10:51:53.733Z,58.41
2022-08-26T10:54:32.334Z,58.57
2022-08-26T10:57:05.872Z,58.30
2022-08-26T10:59:57.913Z,59.03
2022-08-26T11:02:35.579Z,59.26
2022-08-26T11:05:08.842Z,59.17
2022-08-26T11:07:47.158Z,58.84
2022-08-26T11:11:04.328Z,58.79
2022-08-26T11:14:03.412Z,58.75
2022-08-26T11:16:43.828Z,59.17
2022-08-26T11:19:58.837Z,58.92
2022-08-26T11:22:31.560Z,58.66
2022-08-26T11:25:11.433Z,58.58
2022-08-26T11:28:01.375Z,58.04
2022-08-26T11:30:57.478Z,58.34
2022-08-26T11:34:00.920Z,59.00
2022-08-26T11:36:53.979Z,58.92
2022-08-26T11:39:36.685Z,59.64
2022-08-26T11:42:22.711Z,59.75
2022-08-26T11:44:51.772Z,60.60
2022-08-26T11:47:29.558Z,61.05
2022-08-26T11:50:12.739Z,61.26
2022-08-26T11:52:41.269Z,61.08
2022-08-26T11:55:12.241Z,61.14
2022-08-26T11:57:47.235Z,61.03
2022-08-26T12:00:21.207Z,60.92
2022-08-26T12:02:52.526Z,60.88
2022-08-26T12:05:25.483Z,61.29
2022-08-26T12:07:59.999Z,61.65
2022-08-26T12:10:30.893Z,61.20
2022-08-26T12:13:04.000Z,61.05
2022-08-26T12:15:35.687Z,61.02
2022-08-26T12:18:29.434Z,60.97
2022-08-26T12:21:03.431Z,60.79
2022-08-26T12:23:43.361Z,60.55
2022-08-26T12:26:19.862Z,60.67
2022-08-26T12:28:53.096Z,60.76
2022-08-26T12:31:29.353Z,60.98
2022-08-26T12:34:00.260Z,60.68
2022-08-26T12:36:32.074Z,59.77
2022-08-26T12:39:10.036Z,60.41
2022-08-26T12:41:50.413Z,60.60
2022-08-26T12:44:53.117Z,60.57
2022-08-26T12:47:30.988Z,60.37
2022-08-26T12:50:19.346Z,59.84
2022-08-26T12:52:56.940Z,59.86
2022-08-26T12:55:35.558Z,59.95
2022-08-26T12:58:26.496Z,59.14
2022-08-26T13:00:58.206Z,59.56
2022-08-26T13:03:43.953Z,59.41
2022-08-26T13:06:15.721Z,60.20
2022-08-26T13:08:46.060Z,60.18
2022-08-26T13:11:18.623Z,60.15
2022-08-26T13:13:47.121Z,59.87
2022-08-26T13:16:16.790Z,60.21
2022-08-26T13:18:45.244Z,60.26
2022-08-26T13:21:17.609Z,60.71
2022-08-26T13:23:46.384Z,60.29
2022-08-26T13:26:15.400Z,60.40
2022-08-26T13:28:44.633Z,60.41
2022-08-26T13:31:17.898Z,59.92
2022-08-26T13:33:48.611Z,59.80
2022-08-26T13:36:17.548Z,59.78
2022-08-26T13:38:48.296Z,59.66
2022-08-26T13:41:23.631Z,59.59
2022-08-26T13:43:58.935Z,59.53
2022-08-26T13:46:32.784Z,59.63
2022-08-26T13:49:03.102Z,59.45
2022-08-26T13:51:33.664Z,59.49
2022-08-26T13:54:02.301Z,60.53
2022-08-26T13:56:32.407Z,60.54
2022-08-26T13:59:04.318Z,60.77
2022-08-26T14:01:36.227Z,61.34
2022-08-26T14:04:07.183Z,60.80
2022-08-26T14:06:36.704Z,60.90
2022-08-26T14:09:05.417Z,61.04
2022-08-26T14:11:41.146Z,61.21
2022-08-26T14:14:22.891Z,61.04
2022-08-26T14:16:59.831Z,60.35
2022-08-26T14:19:33.841Z,60.11
2022-08-26T14:22:04.551Z,59.68
2022-08-26T14:24:34.899Z,60.08
2022-08-26T14:27:05.737Z,60.23
2022-08-26T14:29:36.712Z,60.07
2022-08-26T14:32:13.712Z,60.00
2022-08-26T14:34:44.808Z,59.51
2022-08-26T14:37:15.530Z,59.55
2022-08-26T14:39:46.502Z,59.69
2022-08-26T14:42:23.280Z,59.37
2022-08-26T14:45:01.832Z,58.48
2022-08-26T14:47:33.534Z,58.42
2022-08-26T14:50:05.240Z,58.13
2022-08-26T14:52:56.417Z,58.37
2022-08-26T14:55:25.016Z,58.71
2022-08-26T14:57:56.275Z,58.92
2022-08-26T15:00:27.292Z,59.02
2022-08-26T15:03:00.230Z,58.81
2022-08-26T15:05:31.011Z,58.48
2022-08-26T15:08:02.460Z,58.32
2022-08-26T15:10:31.189Z,58.44
2022-08-26T15:13:01.047Z,58.12
2022-08-26T15:15:31.427Z,58.41
2022-08-26T15:18:04.651Z,58.29
2022-08-26T15:23:07.851Z,57.58
2022-08-26T15:25:37.167Z,58.03
2022-08-26T15:28:06.362Z,58.07
2022-08-26T15:30:35.040Z,57.58
2022-08-26T15:33:06.525Z,57.57
2022-08-26T15:35:45.477Z,57.61
2022-08-26T15:38:15.899Z,57.79
2022-08-26T15:40:45.359Z,57.33
2022-08-26T15:43:28.822Z,57.25
2022-08-26T15:46:01.447Z,56.99
2022-08-26T15:48:33.840Z,57.15
2022-08-26T15:51:03.866Z,56.56
2022-08-26T15:53:35.132Z,56.79
2022-08-26T15:56:06.277Z,56.87
2022-08-26T15:58:39.888Z,57.22
2022-08-26T16:01:12.214Z,57.04
2022-08-26T16:03:43.078Z,56.69
2022-08-26T16:06:15.619Z,56.92
2022-08-26T16:08:45.333Z,56.67
2022-08-26T16:11:19.189Z,56.89
2022-08-26T16:13:48.570Z,55.96
2022-08-26T16:16:19.886Z,56.22
2022-08-26T16:18:50.437Z,55.65
2022-08-26T16:21:20.792Z,55.74
2022-08-26T16:23:53.031Z,55.39
2022-08-26T16:26:27.526Z,55.20
2022-08-26T16:28:58.316Z,55.19
2022-08-26T16:31:29.843Z,54.84
2022-08-26T16:34:02.629Z,54.82
2022-08-26T16:36:32.159Z,54.24
2022-08-26T16:39:02.160Z,54.35
2022-08-26T16:41:33.820Z,54.92
2022-08-26T16:44:06.123Z,54.92
2022-08-26T16:46:36.408Z,55.04
2022-08-26T16:49:07.602Z,54.73
2022-08-26T16:51:38.426Z,54.65
2022-08-26T16:54:09.839Z,54.77
2022-08-26T16:56:42.013Z,54.35
2022-08-26T16:59:15.561Z,53.67
2022-08-26T17:01:44.854Z,54.02
2022-08-26T17:04:16.044Z,53.67
2022-08-26T17:06:46.150Z,53.69
2022-08-26T17:09:17.719Z,53.53
2022-08-26T17:11:49.210Z,53.83
2022-08-26T17:14:18.914Z,53.59
2022-08-26T17:16:51.743Z,53.66
2022-08-26T17:19:23.428Z,53.39
2022-08-26T17:21:56.801Z,53.65
2022-08-26T17:24:26.450Z,53.20
2022-08-26T17:26:59.186Z,53.31
2022-08-26T17:29:30.403Z,53.58
2022-08-26T17:32:02.995Z,53.68
2022-08-26T17:34:35.716Z,54.06
2022-08-26T17:37:05.601Z,53.82
2022-08-26T17:39:34.969Z,53.47
2022-08-26T17:42:04.188Z,53.88
2022-08-26T17:44:32.560Z,53.94
2022-08-26T17:47:00.921Z,53.77
2022-08-26T17:49:29.507Z,53.81
2022-08-26T17:52:00.333Z,54.04
2022-08-26T17:54:31.722Z,54.05
2022-08-26T17:57:01.477Z,54.03
2022-08-26T17:59:33.064Z,53.81
2022-08-26T18:02:06.498Z,54.04
2022-08-26T18:04:35.014Z,53.48
2022-08-26T18:07:09.227Z,53.72
2022-08-26T18:09:38.369Z,53.69
2022-08-26T18:12:08.726Z,53.58
2022-08-26T18:14:37.596Z,53.43
2022-08-26T18:17:11.741Z,52.93
2022-08-26T18:19:45.173Z,53.13
2022-08-26T18:22:17.552Z,53.46
2022-08-26T18:24:56.529Z,53.03
2022-08-26T18:27:29.939Z,52.87
2022-08-26T18:30:00.938Z,52.75
2022-08-26T18:32:32.105Z,52.65
2022-08-26T18:35:02.343Z,52.80
2022-08-26T18:37:34.239Z,52.76
2022-08-26T18:40:04.867Z,52.29
2022-08-26T18:42:33.671Z,52.71
2022-08-26T18:45:02.557Z,52.46
2022-08-26T18:47:32.245Z,52.56
2022-08-26T18:50:03.652Z,53.28
2022-08-26T18:52:34.376Z,53.46
2022-08-26T18:55:03.715Z,52.79
2022-08-26T18:57:31.886Z,52.39
2022-08-26T19:00:00.380Z,52.20
2022-08-26T19:02:32.718Z,52.45
2022-08-26T19:05:01.339Z,51.97
2022-08-26T19:07:29.979Z,51.81
2022-08-26T19:09:59.488Z,51.92
2022-08-26T19:12:27.514Z,51.77
2022-08-26T19:14:55.742Z,52.03
2022-08-26T19:17:24.247Z,51.42
2022-08-26T19:19:53.565Z,51.03
2022-08-26T19:22:22.168Z,51.60
2022-08-26T19:24:50.156Z,51.82
2022-08-26T19:27:20.215Z,51.45
2022-08-26T19:29:50.282Z,51.36
2022-08-26T19:32:24.198Z,51.42
2022-08-26T19:34:52.902Z,51.50
2022-08-26T19:37:21.860Z,51.10
2022-08-26T19:39:50.150Z,50.74
2022-08-26T19:42:20.271Z,51.06
2022-08-26T19:45:06.967Z,50.82
2022-08-26T19:47:41.557Z,51.38
2022-08-26T19:50:14.409Z,51.06
2022-08-26T19:52:44.296Z,51.43
2022-08-26T19:55:15.044Z,51.58
2022-08-26T19:57:45.371Z,51.67
2022-08-26T20:00:17.036Z,51.77
2022-08-26T20:02:50.182Z,51.67
2022-08-26T20:05:20.674Z,51.48
2022-08-26T20:07:50.552Z,51.60
2022-08-26T20:10:25.137Z,51.78
2022-08-26T20:12:56.796Z,51.46
2022-08-26T20:15:28.512Z,51.68
2022-08-26T20:17:59.128Z,51.43
2022-08-26T20:20:45.485Z,51.24
2022-08-26T20:23:17.396Z,51.43
2022-08-26T20:25:48.782Z,51.48
2022-08-26T20:28:20.538Z,51.19
2022-08-26T20:30:51.383Z,51.04
2022-08-26T20:33:24.366Z,50.82
2022-08-26T20:35:53.866Z,50.68
2022-08-26T20:38:23.698Z,50.74
2022-08-26T20:40:52.158Z,50.44
2022-08-26T20:43:25.851Z,50.68
2022-08-26T20:45:54.348Z,50.29
2022-08-26T20:48:22.845Z,50.27
2022-08-26T20:50:51.137Z,50.52
2022-08-26T20:53:19.213Z,49.97
2022-08-26T20:55:47.816Z,50.15
2022-08-26T20:58:16.023Z,49.94
2022-08-26T21:00:45.546Z,49.81
2022-08-26T21:03:14.656Z,49.26
2022-08-26T21:05:43.199Z,49.60
2022-08-26T21:08:12.070Z,49.79
2022-08-26T21:10:40.766Z,48.91
2022-08-26T21:13:09.258Z,48.40
2022-08-26T21:15:37.643Z,49.40
2022-08-26T21:18:07.284Z,49.08
2022-08-26T21:20:37.112Z,48.76
2022-08-26T21:23:06.866Z,49.40
2022-08-26T21:25:35.145Z,49.17
2022-08-26T21:28:03.335Z,49.27
2022-08-26T21:30:31.727Z,49.12
2022-08-26T21:32:59.785Z,49.76
2022-08-26T21:35:30.242Z,49.66
2022-08-26T21:38:00.188Z,49.43
2022-08-26T21:40:31.227Z,49.62
2022-08-26T21:43:00.409Z,49.61
2022-08-26T21:45:29.210Z,49.31
2022-08-26T21:47:58.004Z,49.43
2022-08-26T21:50:26.161Z,49.46
2022-08-26T21:52:57.461Z,49.16
2022-08-26T21:55:27.618Z,49.26
2022-08-26T21:57:57.708Z,48.84
2022-08-26T22:00:26.370Z,48.17
2022-08-26T22:02:55.059Z,48.46
2022-08-26T22:05:23.775Z,48.85
2022-08-26T22:07:53.765Z,48.30
2022-08-26T22:10:24.741Z,47.93
2022-08-26T22:12:54.022Z,48.24
2022-08-26T22:15:27.604Z,48.11
2022-08-26T22:17:57.881Z,48.25
2022-08-26T22:20:26.532Z,48.33
2022-08-26T22:22:55.041Z,48.34
2022-08-26T22:25:26.354Z,47.94
2022-08-26T22:27:55.547Z,47.71
2022-08-26T22:30:25.352Z,47.70
2022-08-26T22:32:54.358Z,48.06
2022-08-26T22:35:28.310Z,48.21
2022-08-26T22:37:59.641Z,47.39
2022-08-26T22:40:30.478Z,47.68
2022-08-26T22:43:00.367Z,47.86
2022-08-26T22:45:32.196Z,47.60
2022-08-26T22:48:04.821Z,47.90
2022-08-26T22:50:33.270Z,47.52
2022-08-26T22:53:01.402Z,47.65
2022-08-26T22:55:32.597Z,47.74
2022-08-26T22:58:04.601Z,47.92
2022-08-26T23:00:34.993Z,47.27
2022-08-26T23:03:04.707Z,47.09
2022-08-26T23:05:34.928Z,47.49
2022-08-26T23:08:05.995Z,47.06
2022-08-26T23:10:38.742Z,48.20
2022-08-26T23:13:09.790Z,48.23
2022-08-26T23:15:42.468Z,48.34
2022-08-26T23:18:14.667Z,48.67
2022-08-26T23:20:44.326Z,49.43
2022-08-26T23:23:14.892Z,49.48
2022-08-26T23:25:46.379Z,49.61
2022-08-26T23:28:16.749Z,49.17
2022-08-26T23:30:46.649Z,49.49
2022-08-26T23:33:15.835Z,49.92
2022-08-26T23:35:45.441Z,50.05
2022-08-26T23:38:16.405Z,49.89
2022-08-26T23:40:48.771Z,49.75
2022-08-26T23:43:17.777Z,50.00
2022-08-26T23:45:45.744Z,50.20
2022-08-26T23:48:13.968Z,50.80
2022-08-26T23:51:02.665Z,49.98
2022-08-26T23:53:30.933Z,50.78
2022-08-26T23:56:00.579Z,50.36
2022-08-26T23:58:28.777Z,50.41
